createdAt,value
2022-08-30T00:01:09.177Z,4.13
2022-08-30T00:03:47.550Z,3.95
2022-08-30T00:06:16.934Z,3.47
2022-08-30T00:08:44.095Z,3.33
2022-08-30T00:11:14.387Z,3.72
2022-08-30T00:13:43.404Z,4.30
2022-08-30T00:16:11.193Z,3.85
2022-08-30T00:18:39.211Z,3.40
2022-08-30T00:21:06.763Z,3.40
2022-08-30T00:23:33.488Z,3.53
2022-08-30T00:26:00.874Z,3.50
2022-08-30T00:28:27.535Z,3.80
2022-08-30T00:30:55.076Z,3.78
2022-08-30T00:33:22.299Z,3.63
2022-08-30T00:35:52.062Z,3.72
2022-08-30T00:38:18.918Z,3.60
2022-08-30T00:40:46.289Z,3.95
2022-08-30T00:43:36.870Z,4.20
2022-08-30T00:46:07.805Z,3.78
2022-08-30T00:48:38.943Z,4.05
2022-08-30T00:51:11.455Z,4.30
2022-08-30T00:53:42.735Z,4.10
2022-08-30T00:56:10.830Z,3.90
2022-08-30T00:58:43.127Z,4.10
2022-08-30T01:01:10.718Z,4.18
2022-08-30T01:03:39.291Z,3.53
2022-08-30T01:06:07.678Z,3.97
2022-08-30T01:08:35.255Z,3.97
2022-08-30T01:11:04.237Z,3.95
2022-08-30T01:13:32.947Z,4.25
2022-08-30T01:16:00.446Z,4.05
2022-08-30T01:18:29.484Z,4.10
2022-08-30T01:21:07.325Z,4.07
2022-08-30T01:23:40.511Z,4.03
2022-08-30T01:26:07.632Z,4.30
2022-08-30T01:28:35.417Z,4.28
2022-08-30T01:31:02.603Z,4.22
2022-08-30T01:33:30.037Z,4.35
2022-08-30T01:36:00.542Z,4.00
2022-08-30T01:38:34.902Z,4.40
2022-08-30T01:41:09.002Z,4.07
2022-08-30T01:43:35.860Z,4.15
2022-08-30T01:46:04.787Z,4.28
2022-08-30T01:48:32.313Z,4.55
2022-08-30T01:50:59.057Z,4.20
2022-08-30T01:53:25.940Z,4.22
2022-08-30T01:55:52.794Z,4.15
2022-08-30T01:58:20.058Z,4.60
2022-08-30T02:00:46.787Z,4.50
2022-08-30T02:03:13.835Z,4.43
2022-08-30T02:05:40.786Z,4.47
2022-08-30T02:08:07.778Z,4.72
2022-08-30T02:10:34.510Z,4.65
2022-08-30T02:13:01.291Z,4.18
2022-08-30T02:15:30.014Z,4.38
2022-08-30T02:18:01.308Z,3.95
2022-08-30T02:20:28.356Z,4.20
2022-08-30T02:22:57.584Z,4.22
2022-08-30T02:25:26.476Z,4.90
2022-08-30T02:27:53.139Z,4.63
2022-08-30T02:30:20.065Z,4.88
2022-08-30T02:32:46.705Z,4.95
2022-08-30T02:35:14.033Z,4.43
2022-08-30T02:37:40.752Z,4.45
2022-08-30T02:40:08.160Z,4.90
2022-08-30T02:42:34.919Z,4.68
2022-08-30T02:45:02.383Z,4.78
2022-08-30T02:47:29.149Z,4.40
2022-08-30T02:49:55.998Z,4.00
2022-08-30T02:52:27.509Z,4.43
2022-08-30T02:54:55.377Z,4.38
2022-08-30T02:57:22.852Z,4.22
2022-08-30T02:59:50.190Z,4.18
2022-08-30T03:02:17.063Z,4.75
2022-08-30T03:04:46.863Z,5.00
2022-08-30T03:07:13.772Z,4.55
2022-08-30T03:09:40.988Z,4.38
2022-08-30T03:12:09.047Z,5.25
2022-08-30T03:14:37.665Z,4.63
2022-08-30T03:17:06.964Z,4.68
2022-08-30T03:19:39.548Z,4.43
2022-08-30T03:22:07.431Z,5.10
2022-08-30T03:24:34.927Z,4.88
2022-08-30T03:27:01.902Z,4.82
2022-08-30T03:29:29.743Z,4.93
2022-08-30T03:31:57.569Z,5.05
2022-08-30T03:34:26.081Z,5.00
2022-08-30T03:36:54.318Z,5.65
2022-08-30T03:39:22.652Z,5.10
2022-08-30T03:41:51.893Z,5.30
2022-08-30T03:44:19.105Z,4.72
2022-08-30T03:46:46.733Z,4.88
2022-08-30T03:49:13.867Z,4.78
2022-08-30T03:51:40.637Z,5.13
2022-08-30T03:54:07.729Z,4.85
2022-08-30T03:56:34.432Z,5.00
2022-08-30T03:59:01.333Z,5.45
2022-08-30T04:01:28.195Z,5.65
2022-08-30T04:03:56.601Z,5.28
2022-08-30T04:06:23.700Z,5.43
2022-08-30T04:08:50.649Z,5.80
2022-08-30T04:11:17.366Z,5.95
2022-08-30T04:13:44.332Z,5.72
2022-08-30T04:16:11.059Z,5.13
2022-08-30T04:18:38.708Z,5.22
2022-08-30T04:21:05.662Z,6.28
2022-08-30T04:23:32.437Z,6.22
2022-08-30T04:25:59.143Z,7.07
2022-08-30T04:28:26.149Z,6.30
2022-08-30T04:30:52.858Z,6.03
2022-08-30T04:33:19.855Z,5.78
2022-08-30T04:35:49.032Z,5.65
2022-08-30T04:38:17.008Z,5.82
2022-08-30T04:40:47.979Z,6.43
2022-08-30T04:43:15.411Z,5.82
2022-08-30T04:45:42.668Z,5.53
2022-08-30T04:48:10.375Z,6.05
2022-08-30T04:50:37.522Z,6.65
2022-08-30T04:53:13.231Z,7.22
2022-08-30T04:55:41.181Z,5.95
2022-08-30T04:58:08.215Z,6.00
2022-08-30T05:00:35.594Z,6.00
2022-08-30T05:03:02.758Z,6.35
2022-08-30T05:05:41.807Z,6.38
2022-08-30T05:08:11.120Z,6.80
2022-08-30T05:10:43.887Z,6.45
2022-08-30T05:13:11.276Z,6.07
2022-08-30T05:15:39.728Z,6.30
2022-08-30T05:18:08.310Z,6.20
2022-08-30T05:20:39.364Z,7.20
2022-08-30T05:23:06.757Z,7.28
2022-08-30T05:25:38.287Z,7.25
2022-08-30T05:28:05.343Z,7.30
2022-08-30T05:30:35.814Z,6.93
2022-08-30T05:33:03.269Z,7.68
2022-08-30T05:35:30.062Z,7.65
2022-08-30T05:37:56.839Z,7.13
2022-08-30T05:40:23.686Z,7.95
2022-08-30T05:42:51.662Z,7.40
2022-08-30T05:45:20.801Z,7.57
2022-08-30T05:48:08.214Z,6.88
2022-08-30T05:50:38.145Z,8.00
2022-08-30T05:53:06.700Z,7.60
2022-08-30T05:55:33.438Z,6.82
2022-08-30T05:58:01.048Z,7.47
2022-08-30T06:00:30.738Z,7.78
2022-08-30T06:02:58.231Z,6.35
2022-08-30T06:05:25.329Z,7.38
2022-08-30T06:07:52.850Z,7.50
2022-08-30T06:10:20.480Z,7.65
2022-08-30T06:12:47.483Z,7.90
2022-08-30T06:15:14.795Z,7.88
2022-08-30T06:17:49.384Z,8.95
2022-08-30T06:20:23.788Z,8.57
2022-08-30T06:22:55.146Z,8.32
2022-08-30T06:25:22.610Z,7.97
2022-08-30T06:27:54.404Z,9.30
2022-08-30T06:30:23.511Z,8.68
2022-08-30T06:32:50.999Z,7.93
2022-08-30T06:35:18.276Z,7.90
2022-08-30T06:37:45.688Z,8.35
2022-08-30T06:40:14.696Z,8.20
2022-08-30T06:42:41.848Z,6.88
2022-08-30T06:45:10.873Z,7.45
2022-08-30T06:47:40.060Z,6.88
2022-08-30T06:50:07.851Z,6.43
2022-08-30T06:52:40.575Z,7.15
2022-08-30T06:55:08.076Z,7.03
2022-08-30T06:57:34.879Z,6.10
2022-08-30T07:00:02.580Z,6.28
2022-08-30T07:02:29.389Z,6.38
2022-08-30T07:04:56.567Z,6.18
2022-08-30T07:07:24.143Z,5.80
2022-08-30T07:09:51.194Z,6.00
2022-08-30T07:12:17.941Z,5.70
2022-08-30T07:14:45.089Z,5.63
2022-08-30T07:17:34.569Z,6.40
2022-08-30T07:20:03.122Z,5.40
2022-08-30T07:22:29.896Z,5.82
2022-08-30T07:24:56.761Z,5.68
2022-08-30T07:27:23.465Z,6.25
2022-08-30T07:29:50.566Z,5.75
2022-08-30T07:32:17.560Z,5.88
2022-08-30T07:34:44.782Z,5.53
2022-08-30T07:37:18.035Z,5.80
2022-08-30T07:39:47.947Z,6.10
2022-08-30T07:42:15.900Z,4.60
2022-08-30T07:44:42.737Z,5.80
2022-08-30T07:47:10.274Z,5.00
2022-08-30T07:49:38.280Z,5.00
2022-08-30T07:52:05.395Z,4.72
2022-08-30T07:54:32.388Z,4.60
2022-08-30T07:56:59.231Z,4.78
2022-08-30T07:59:26.075Z,4.10
2022-08-30T08:01:53.008Z,4.68
2022-08-30T08:04:20.030Z,5.10
2022-08-30T08:06:47.162Z,4.38
2022-08-30T08:09:14.290Z,3.75
2022-08-30T08:11:41.907Z,4.05
2022-08-30T08:14:09.288Z,3.70
2022-08-30T08:16:38.213Z,3.65
2022-08-30T08:19:09.297Z,3.70
2022-08-30T08:21:36.807Z,3.92
2022-08-30T08:24:04.456Z,3.40
2022-08-30T08:26:33.894Z,3.63
2022-08-30T08:29:00.892Z,3.75
2022-08-30T08:31:33.668Z,3.90
2022-08-30T08:34:06.239Z,4.07
2022-08-30T08:36:35.278Z,4.18
2022-08-30T08:39:05.461Z,3.50
2022-08-30T08:41:53.941Z,3.80
2022-08-30T08:45:05.461Z,3.50
2022-08-30T08:48:04.169Z,3.45
2022-08-30T08:50:32.314Z,3.15
2022-08-30T08:53:46.638Z,3.58
2022-08-30T08:56:17.314Z,3.75
2022-08-30T08:58:53.502Z,3.75
2022-08-30T09:01:23.754Z,3.53
2022-08-30T09:03:51.774Z,3.53
2022-08-30T09:06:45.144Z,3.28
2022-08-30T09:09:13.505Z,2.88
2022-08-30T09:11:44.337Z,3.15
2022-08-30T09:14:22.335Z,2.88
2022-08-30T09:16:58.423Z,3.20
2022-08-30T09:19:35.722Z,3.00
2022-08-30T09:22:32.334Z,2.60
2022-08-30T09:25:14.593Z,2.63
2022-08-30T09:27:44.947Z,3.10
2022-08-30T09:30:20.730Z,2.92
2022-08-30T09:32:58.921Z,3.08
2022-08-30T09:35:39.248Z,2.88
2022-08-30T09:38:13.124Z,3.25
2022-08-30T09:40:44.429Z,3.10
2022-08-30T09:43:17.577Z,2.90
2022-08-30T09:45:47.977Z,3.15
2022-08-30T09:48:38.703Z,3.25
2022-08-30T09:51:11.526Z,3.20
2022-08-30T09:54:07.219Z,2.80
2022-08-30T09:56:59.455Z,2.70
2022-08-30T09:59:50.736Z,3.28
2022-08-30T10:02:55.556Z,2.83
2022-08-30T10:05:25.367Z,3.05
2022-08-30T10:08:25.287Z,3.13
2022-08-30T10:11:07.535Z,2.80
2022-08-30T10:14:29.500Z,2.78
2022-08-30T10:17:27.062Z,3.20
2022-08-30T10:20:16.117Z,2.80
2022-08-30T10:23:03.902Z,3.05
2022-08-30T10:25:42.006Z,3.13
2022-08-30T10:28:21.666Z,2.80
2022-08-30T10:30:56.378Z,2.90
2022-08-30T10:33:31.843Z,3.25
2022-08-30T10:36:02.800Z,2.70
2022-08-30T10:41:20.388Z,3.05
2022-08-30T10:44:08.493Z,2.90
2022-08-30T10:47:01.472Z,2.75
2022-08-30T10:49:33.730Z,2.78
2022-08-30T10:52:12.612Z,2.80
2022-08-30T10:54:47.346Z,2.85
2022-08-30T10:57:15.056Z,2.60
2022-08-30T10:59:48.697Z,2.83
2022-08-30T11:02:30.426Z,2.67
2022-08-30T11:05:13.078Z,2.85
2022-08-30T11:07:58.890Z,3.10
2022-08-30T11:10:49.785Z,3.00
2022-08-30T11:13:30.421Z,3.03
2022-08-30T11:16:07.233Z,3.17
2022-08-30T11:18:53.581Z,2.85
2022-08-30T11:21:32.728Z,2.83
2022-08-30T11:24:01.839Z,2.70
2022-08-30T11:26:50.133Z,2.80
2022-08-30T11:29:37.096Z,2.83
2022-08-30T11:32:13.227Z,2.85
2022-08-30T11:34:47.322Z,3.10
2022-08-30T11:37:37.226Z,2.65
2022-08-30T11:40:06.413Z,2.75
2022-08-30T11:42:43.221Z,2.60
2022-08-30T11:45:25.476Z,2.72
2022-08-30T11:47:59.812Z,2.95
2022-08-30T11:50:55.405Z,2.63
2022-08-30T11:53:48.547Z,2.42
2022-08-30T11:56:46.380Z,2.33
2022-08-30T11:59:21.019Z,2.38
2022-08-30T12:01:51.891Z,2.45
2022-08-30T12:04:24.662Z,2.07
2022-08-30T12:07:08.870Z,2.50
2022-08-30T12:09:36.215Z,2.47
2022-08-30T12:12:11.646Z,2.53
2022-08-30T12:14:48.252Z,2.65
2022-08-30T12:17:37.325Z,2.88
2022-08-30T12:20:13.349Z,2.63
2022-08-30T12:22:41.144Z,2.60
2022-08-30T12:25:24.463Z,2.40
2022-08-30T12:27:51.788Z,2.75
2022-08-30T12:30:27.564Z,2.33
2022-08-30T12:32:55.177Z,2.50
2022-08-30T12:35:28.616Z,2.45
2022-08-30T12:38:03.960Z,2.30
2022-08-30T12:40:34.839Z,2.60
2022-08-30T12:45:44.317Z,2.50
2022-08-30T12:48:19.707Z,2.90
2022-08-30T12:50:54.597Z,2.42
2022-08-30T12:53:42.193Z,2.90
2022-08-30T12:56:13.749Z,2.45
2022-08-30T12:58:48.035Z,2.35
2022-08-30T13:01:35.886Z,2.35
2022-08-30T13:04:13.788Z,2.53
2022-08-30T13:06:42.136Z,2.58
2022-08-30T13:09:10.293Z,2.70
2022-08-30T13:11:37.464Z,2.35
2022-08-30T13:14:19.384Z,2.90
2022-08-30T13:16:46.819Z,2.70
2022-08-30T13:19:27.681Z,2.30
2022-08-30T13:21:57.039Z,2.72
2022-08-30T13:24:25.647Z,2.63
2022-08-30T13:26:55.215Z,2.30
2022-08-30T13:29:26.091Z,2.78
2022-08-30T13:31:53.523Z,2.80
2022-08-30T13:34:22.617Z,2.70
2022-08-30T13:36:58.055Z,3.08
2022-08-30T13:39:25.657Z,2.72
2022-08-30T13:41:53.538Z,2.72
2022-08-30T13:44:20.513Z,2.65
2022-08-30T13:46:54.584Z,2.70
2022-08-30T13:49:44.541Z,2.53
2022-08-30T13:52:22.313Z,2.78
2022-08-30T13:54:51.747Z,2.75
2022-08-30T14:00:17.571Z,2.60
2022-08-30T14:02:49.055Z,3.03
2022-08-30T14:11:04.853Z,2.83
2022-08-30T14:13:31.672Z,2.88
2022-08-30T14:18:52.056Z,2.50
2022-08-30T14:21:24.225Z,2.55
2022-08-30T14:23:53.312Z,2.65
2022-08-30T14:26:45.896Z,2.50
2022-08-30T14:29:16.803Z,2.40
2022-08-30T14:34:12.160Z,2.70
2022-08-30T14:36:41.102Z,2.67
2022-08-30T14:39:11.599Z,2.60
2022-08-30T14:41:47.742Z,2.80
2022-08-30T14:44:16.592Z,2.65
2022-08-30T14:46:44.189Z,2.80
2022-08-30T14:49:12.471Z,2.85
2022-08-30T14:51:40.418Z,2.65
2022-08-30T14:54:07.674Z,2.50
2022-08-30T14:56:36.398Z,3.22
2022-08-30T14:59:03.510Z,2.72
2022-08-30T15:01:31.346Z,2.95
2022-08-30T15:04:01.333Z,2.80
2022-08-30T15:06:28.580Z,2.70
2022-08-30T15:08:56.224Z,2.85
2022-08-30T15:11:25.698Z,2.67
2022-08-30T15:13:53.818Z,2.70
2022-08-30T15:16:25.557Z,3.00
2022-08-30T15:18:53.284Z,2.78
2022-08-30T15:21:32.143Z,2.95
2022-08-30T15:24:01.087Z,3.10
2022-08-30T15:26:28.646Z,3.15
2022-08-30T15:28:55.565Z,3.13
2022-08-30T15:31:28.456Z,2.90
2022-08-30T15:33:55.514Z,3.05
2022-08-30T15:36:24.281Z,3.33
2022-08-30T15:38:52.978Z,3.00
2022-08-30T15:41:19.637Z,2.80
2022-08-30T15:43:46.683Z,3.00
2022-08-30T15:46:32.680Z,3.03
2022-08-30T15:49:03.669Z,3.30
2022-08-30T15:51:41.632Z,2.90
2022-08-30T15:54:11.907Z,3.53
2022-08-30T15:56:39.948Z,2.95
2022-08-30T15:59:10.138Z,3.08
2022-08-30T16:01:39.359Z,3.08
2022-08-30T16:04:07.359Z,3.15
2022-08-30T16:06:37.615Z,3.03
2022-08-30T16:09:06.815Z,2.97
2022-08-30T16:11:34.774Z,3.15
2022-08-30T16:14:02.020Z,2.90
2022-08-30T16:16:31.268Z,3.17
2022-08-30T16:18:58.912Z,2.75
2022-08-30T16:21:30.032Z,3.28
2022-08-30T16:24:00.207Z,2.97
2022-08-30T16:26:29.417Z,3.30
2022-08-30T16:28:56.816Z,2.80
2022-08-30T16:31:26.762Z,3.05
2022-08-30T16:33:54.840Z,3.47
2022-08-30T16:36:28.971Z,2.72
2022-08-30T16:38:58.289Z,3.45
2022-08-30T16:41:25.989Z,3.45
2022-08-30T16:43:54.473Z,3.22
2022-08-30T16:46:27.508Z,3.40
2022-08-30T16:49:01.736Z,3.60
2022-08-30T16:51:31.588Z,3.60
2022-08-30T16:54:07.825Z,3.70
2022-08-30T16:56:35.938Z,3.40
2022-08-30T16:59:09.062Z,3.30
2022-08-30T17:01:38.877Z,3.30
2022-08-30T17:04:08.382Z,3.88
2022-08-30T17:06:36.697Z,3.63
2022-08-30T17:09:06.645Z,3.72
2022-08-30T17:11:36.189Z,3.85
2022-08-30T17:14:04.378Z,3.65
2022-08-30T17:16:31.957Z,3.47
2022-08-30T17:19:01.201Z,3.78
2022-08-30T17:21:30.203Z,3.88
2022-08-30T17:24:01.868Z,3.95
2022-08-30T17:26:35.700Z,4.13
2022-08-30T17:29:04.172Z,3.70
2022-08-30T17:31:31.816Z,3.50
2022-08-30T17:34:03.135Z,3.97
2022-08-30T17:36:35.259Z,3.85
2022-08-30T17:41:50.165Z,4.03
2022-08-30T17:44:28.721Z,3.92
2022-08-30T17:46:57.386Z,3.80
2022-08-30T17:49:26.798Z,4.07
2022-08-30T17:51:56.858Z,3.80
2022-08-30T17:54:42.600Z,3.88
2022-08-30T17:57:11.931Z,4.35
2022-08-30T17:59:39.764Z,4.40
2022-08-30T18:02:08.157Z,3.97
2022-08-30T18:04:41.651Z,4.43
2022-08-30T18:07:13.182Z,5.00
2022-08-30T18:09:42.635Z,5.22
2022-08-30T18:12:11.597Z,4.63
2022-08-30T18:14:39.386Z,4.68
2022-08-30T18:17:07.922Z,4.93
2022-08-30T18:19:36.885Z,4.78
2022-08-30T18:22:14.988Z,4.88
2022-08-30T18:24:42.722Z,4.72
2022-08-30T18:27:09.594Z,5.20
2022-08-30T18:29:38.574Z,5.05
2022-08-30T18:32:09.190Z,4.78
2022-08-30T18:34:36.933Z,4.65
2022-08-30T18:37:04.192Z,4.80
2022-08-30T18:39:34.580Z,4.90
2022-08-30T18:42:03.930Z,4.93
2022-08-30T18:44:33.318Z,4.63
2022-08-30T18:47:03.691Z,4.28
2022-08-30T18:49:33.057Z,4.53
2022-08-30T18:52:01.667Z,4.60
2022-08-30T18:54:29.777Z,4.75
2022-08-30T18:56:57.101Z,5.10
2022-08-30T18:59:35.563Z,4.78
2022-08-30T19:02:07.232Z,4.95
2022-08-30T19:07:06.977Z,4.45
2022-08-30T19:09:34.913Z,4.43
2022-08-30T19:12:03.220Z,4.25
2022-08-30T19:14:32.582Z,4.13
2022-08-30T19:17:06.015Z,4.50
2022-08-30T19:19:34.892Z,4.55
2022-08-30T19:22:04.536Z,4.80
2022-08-30T19:24:32.252Z,4.50
2022-08-30T19:27:01.188Z,4.85
2022-08-30T19:29:28.483Z,4.82
2022-08-30T19:31:56.766Z,4.72
2022-08-30T19:34:23.889Z,4.72
2022-08-30T19:36:51.214Z,5.07
2022-08-30T19:39:20.331Z,4.45
2022-08-30T19:41:50.638Z,4.35
2022-08-30T19:44:17.842Z,4.50
2022-08-30T19:46:45.255Z,4.38
2022-08-30T19:49:13.138Z,3.97
2022-08-30T19:51:43.988Z,4.00
2022-08-30T19:54:14.669Z,3.90
2022-08-30T19:56:43.071Z,4.03
2022-08-30T19:59:10.125Z,3.65
2022-08-30T20:01:37.989Z,4.13
2022-08-30T20:04:05.142Z,4.30
2022-08-30T20:06:32.778Z,3.80
2022-08-30T20:09:01.591Z,4.00
2022-08-30T20:11:29.781Z,3.70
2022-08-30T20:13:57.621Z,3.38
2022-08-30T20:16:33.050Z,3.53
2022-08-30T20:19:06.369Z,3.83
2022-08-30T20:21:33.948Z,4.53
2022-08-30T20:24:01.457Z,3.13
2022-08-30T20:26:34.256Z,3.65
2022-08-30T20:29:05.380Z,3.45
2022-08-30T20:31:33.643Z,3.70
2022-08-30T20:34:02.431Z,3.65
2022-08-30T20:36:29.404Z,3.30
2022-08-30T20:38:56.770Z,3.47
2022-08-30T20:41:25.241Z,3.53
2022-08-30T20:43:53.077Z,3.30
2022-08-30T20:46:20.955Z,3.88
2022-08-30T20:48:48.399Z,3.35
2022-08-30T20:51:19.910Z,3.72
2022-08-30T20:53:47.167Z,3.58
2022-08-30T20:56:16.332Z,3.88
2022-08-30T20:58:43.795Z,3.35
2022-08-30T21:01:12.582Z,3.80
2022-08-30T21:03:41.053Z,3.55
2022-08-30T21:06:08.283Z,3.33
2022-08-30T21:08:35.049Z,3.53
2022-08-30T21:11:01.992Z,3.47
2022-08-30T21:13:29.013Z,3.38
2022-08-30T21:16:00.337Z,3.10
2022-08-30T21:18:31.249Z,3.27
2022-08-30T21:20:59.872Z,2.92
2022-08-30T21:23:26.756Z,2.92
2022-08-30T21:25:53.579Z,2.83
2022-08-30T21:28:21.052Z,2.83
2022-08-30T21:30:48.123Z,2.90
2022-08-30T21:33:15.170Z,2.78
2022-08-30T21:36:00.825Z,2.80
2022-08-30T21:38:27.772Z,2.80
2022-08-30T21:40:54.877Z,3.03
2022-08-30T21:43:21.542Z,3.20
2022-08-30T21:45:51.503Z,2.92
2022-08-30T21:48:18.590Z,3.60
2022-08-30T21:50:46.473Z,3.20
2022-08-30T21:53:15.485Z,3.20
2022-08-30T21:55:48.156Z,3.17
2022-08-30T21:58:15.158Z,3.10
2022-08-30T22:00:41.815Z,3.30
2022-08-30T22:03:08.982Z,3.05
2022-08-30T22:05:35.855Z,3.33
2022-08-30T22:08:03.487Z,2.90
2022-08-30T22:10:33.172Z,2.90
2022-08-30T22:13:00.744Z,3.72
2022-08-30T22:15:27.548Z,3.08
2022-08-30T22:17:54.351Z,2.78
2022-08-30T22:20:21.145Z,3.30
2022-08-30T22:22:47.878Z,3.70
2022-08-30T22:25:14.679Z,3.47
2022-08-30T22:27:41.527Z,3.45
2022-08-30T22:30:08.905Z,3.58
2022-08-30T22:32:38.124Z,3.92
2022-08-30T22:35:05.658Z,3.55
2022-08-30T22:37:32.328Z,3.63
2022-08-30T22:39:59.205Z,2.97
2022-08-30T22:42:25.999Z,3.25
2022-08-30T22:44:52.879Z,3.60
2022-08-30T22:47:20.910Z,3.33
2022-08-30T22:49:47.742Z,3.50
2022-08-30T22:52:14.509Z,3.53
2022-08-30T22:54:41.363Z,3.22
2022-08-30T22:57:08.159Z,3.08
2022-08-30T22:59:35.491Z,3.40
2022-08-30T23:02:02.310Z,3.65
2022-08-30T23:04:30.079Z,3.20
2022-08-30T23:06:56.814Z,3.58
2022-08-30T23:09:23.579Z,3.22
2022-08-30T23:11:50.214Z,2.83
2022-08-30T23:14:17.056Z,2.80
2022-08-30T23:16:46.913Z,3.00
2022-08-30T23:19:14.854Z,2.80
2022-08-30T23:21:42.167Z,2.83
2022-08-30T23:24:27.474Z,2.80
2022-08-30T23:27:13.134Z,2.78
2022-08-30T23:29:59.379Z,3.22
2022-08-30T23:32:44.614Z,3.20
2022-08-30T23:35:32.054Z,3.38
2022-08-30T23:38:18.890Z,2.97
2022-08-30T23:41:04.075Z,2.92
2022-08-30T23:43:49.644Z,2.97
2022-08-30T23:46:35.227Z,3.00
2022-08-30T23:49:20.584Z,2.80
2022-08-30T23:52:05.938Z,2.92
2022-08-30T23:54:51.309Z,3.30
2022-08-30T23:57:40.999Z,3.08
